Time;durP1;ratioP1;P1;durP2;ratioP2;P2;SDS_P1;SDS_P2;PMS_P1;PMS_P2;Temp;Humidity;BMP_temperature;BMP_pressure;BME280_temperature;BME280_humidity;BME280_pressure;Samples;Min_cycle;Max_cycle;Signal;HPM_P1;HPM_P2
2022/05/13 00:00:46;;;;;;;8.27;4.15;;;;;;;15.43;76.50;96263.59;5019858;28;20077;-63
2022/05/13 00:03:12;;;;;;;6.57;4.28;;;;;;;15.37;77.23;96253.63;5017996;28;20038;-62
2022/05/13 00:05:37;;;;;;;7.47;4.20;;;;;;;15.36;77.27;96259.06;5020196;28;20517;-62
2022/05/13 00:08:03;;;;;;;5.72;4.00;;;;;;;15.35;76.73;96271.50;5021111;28;20029;-63
2022/05/13 00:10:28;;;;;;;9.82;4.70;;;;;;;15.39;76.55;96266.72;5017499;28;20493;-62
2022/05/13 00:12:54;;;;;;;7.10;4.28;;;;;;;15.44;76.10;96264.41;5015528;28;20033;-62
2022/05/13 00:15:23;;;;;;;5.97;4.13;;;;;;;15.40;76.30;96261.25;5020343;28;20124;-63
2022/05/13 00:17:49;;;;;;;7.63;4.10;;;;;;;15.32;76.95;96269.16;5021038;28;20112;-62
2022/05/13 00:20:16;;;;;;;5.40;4.32;;;;;;;15.29;77.42;96266.81;5020019;28;20105;-62
2022/05/13 00:22:54;;;;;;;8.00;5.15;;;;;;;15.24;77.76;96269.13;5015879;28;20105;-62
2022/05/13 00:25:29;;;;;;;17.10;4.50;;;;;;;15.15;78.84;96268.25;5015978;28;20040;-62
2022/05/13 00:28:00;;;;;;;7.53;4.97;;;;;;;15.14;79.02;96269.22;5019252;28;20511;-62
2022/05/13 00:30:27;;;;;;;7.80;4.60;;;;;;;15.14;78.25;96269.22;5022419;28;20029;-62
2022/05/13 00:32:52;;;;;;;5.70;4.40;;;;;;;15.12;77.37;96271.22;5019987;28;20026;-62
2022/05/13 00:35:20;;;;;;;4.55;4.13;;;;;;;15.08;77.79;96276.00;5016716;28;20084;-62
2022/05/13 00:37:46;;;;;;;7.55;4.20;;;;;;;15.14;77.37;96270.09;5016673;28;20439;-62
2022/05/13 00:40:13;;;;;;;7.15;4.63;;;;;;;15.14;78.54;96270.09;5024623;28;20029;-62
2022/05/13 00:42:39;;;;;;;7.60;4.82;;;;;;;15.07;78.96;96271.66;5016482;28;20021;-62
2022/05/13 00:45:06;;;;;;;6.32;4.32;;;;;;;14.96;79.82;96267.47;5018465;28;20563;-62
2022/05/13 00:47:31;;;;;;;7.43;4.30;;;;;;;14.92;79.58;96252.84;5015843;28;20029;-62
2022/05/13 00:49:59;;;;;;;6.30;5.20;;;;;;;14.86;81.22;96264.91;5022868;28;20396;-62
2022/05/13 00:52:26;;;;;;;6.80;4.78;;;;;;;14.78;80.13;96258.72;5018289;28;20802;-62
2022/05/13 00:54:53;;;;;;;5.43;4.35;;;;;;;14.75;79.87;96257.22;5019837;28;20029;-62
2022/05/13 00:57:19;;;;;;;8.52;4.30;;;;;;;14.77;79.48;96252.59;5020276;28;20041;-62
2022/05/13 00:59:46;;;;;;;7.10;4.22;;;;;;;14.73;80.42;96252.06;5023367;28;20038;-62
2022/05/13 01:02:12;;;;;;;6.13;4.53;;;;;;;14.66;80.32;96244.84;5017645;28;20093;-62
2022/05/13 01:04:39;;;;;;;10.02;4.25;;;;;;;14.63;80.97;96247.81;5019229;28;20440;-63
2022/05/13 01:07:09;;;;;;;6.07;4.28;;;;;;;14.57;81.00;96249.25;5018482;28;20029;-62
2022/05/13 01:09:38;;;;;;;13.40;5.13;;;;;;;14.55;81.00;96232.66;5017816;28;20079;-62
2022/05/13 01:12:09;;;;;;;5.55;4.35;;;;;;;14.54;81.50;96242.44;5014999;28;20040;-62
2022/05/13 01:14:40;;;;;;;6.00;4.82;;;;;;;14.52;80.66;96239.13;5016210;28;20500;-62
2022/05/13 01:20:16;;;;;;;5.22;4.18;;;;;;;14.50;79.94;96243.75;5013980;28;20056;-62
2022/05/13 01:22:45;;;;;;;9.13;4.60;;;;;;;14.46;80.70;96234.41;5021186;28;20113;-62
2022/05/13 01:25:13;;;;;;;8.10;4.90;;;;;;;14.41;81.54;96245.50;5019270;28;20038;-62
2022/05/13 01:27:43;;;;;;;9.18;4.70;;;;;;;14.40;81.01;96245.63;5014164;28;20030;-62
2022/05/13 01:30:11;;;;;;;7.40;4.05;;;;;;;14.38;81.06;96242.31;5020921;28;20516;-63
2022/05/13 01:32:37;;;;;;;7.15;4.35;;;;;;;14.31;82.25;96248.22;5019207;28;20109;-62
2022/05/13 01:35:03;;;;;;;4.57;4.18;;;;;;;14.32;81.79;96243.75;5016331;28;20109;-62
2022/05/13 01:37:29;;;;;;;5.03;4.20;;;;;;;14.31;82.01;96239.44;5016406;28;20061;-62
2022/05/13 01:39:54;;;;;;;5.07;4.32;;;;;;;14.24;81.78;96235.72;5018866;28;20064;-62
2022/05/13 01:42:20;;;;;;;7.28;4.82;;;;;;;14.22;82.43;96235.06;5019645;28;20091;-62
2022/05/13 01:44:45;;;;;;;8.93;4.88;;;;;;;14.25;83.08;96237.38;5020831;28;20711;-62
2022/05/13 01:47:10;;;;;;;7.10;4.57;;;;;;;14.24;83.02;96241.03;5022491;28;20026;-62
2022/05/13 01:49:36;;;;;;;4.97;4.28;;;;;;;14.15;81.83;96235.66;5022098;28;20033;-62
2022/05/13 01:52:01;;;;;;;4.82;4.13;;;;;;;14.14;81.05;96238.44;5018710;28;20076;-62
2022/05/13 01:54:26;;;;;;;5.25;4.38;;;;;;;14.14;81.02;96235.81;5024642;28;20412;-62
2022/05/13 01:56:52;;;;;;;8.52;4.95;;;;;;;14.11;81.36;96234.28;5025172;28;20473;-62
2022/05/13 01:59:18;;;;;;;4.70;4.30;;;;;;;14.03;82.24;96229.72;5022832;28;20127;-62
2022/05/13 02:01:44;;;;;;;6.65;4.43;;;;;;;14.00;82.01;96235.31;5020978;28;20033;-62
2022/05/13 02:04:09;;;;;;;5.20;4.38;;;;;;;13.96;81.88;96231.31;5023993;28;20030;-62
2022/05/13 02:06:35;;;;;;;6.28;4.28;;;;;;;13.96;81.35;96236.63;5016628;28;20029;-62
2022/05/13 02:09:00;;;;;;;6.82;4.68;;;;;;;13.95;81.97;96232.31;5014538;28;20029;-62
2022/05/13 02:11:28;;;;;;;4.30;3.90;;;;;;;13.92;81.62;96245.84;5016156;28;20036;-62
2022/05/13 02:13:54;;;;;;;6.25;4.68;;;;;;;14.04;81.10;96235.88;5022428;28;20592;-62
2022/05/13 02:16:20;;;;;;;8.07;4.45;;;;;;;14.08;80.58;96239.88;5016001;28;20108;-61
2022/05/13 02:18:45;;;;;;;8.75;4.80;;;;;;;13.99;81.69;96238.13;5018729;28;20145;-62
2022/05/13 02:21:12;;;;;;;6.45;4.43;;;;;;;13.88;82.82;96237.34;5022313;28;20077;-62
2022/05/13 02:23:37;;;;;;;4.90;4.43;;;;;;;13.85;82.79;96237.66;5027651;28;20041;-62
2022/05/13 02:26:08;;;;;;;7.32;5.40;;;;;;;13.85;83.03;96227.06;5018827;28;20029;-62
2022/05/13 02:28:34;;;;;;;11.70;5.07;;;;;;;13.78;83.41;96226.03;5028481;28;20036;-62
2022/05/13 02:31:00;;;;;;;16.52;4.63;;;;;;;13.75;82.90;96221.84;5028142;28;20022;-62
2022/05/13 02:33:29;;;;;;;7.25;4.68;;;;;;;13.69;84.04;96222.44;5029177;28;20022;-62
2022/05/13 02:35:55;;;;;;;8.52;4.75;;;;;;;13.63;83.95;96223.03;5018379;28;20105;-62
2022/05/13 02:38:20;;;;;;;6.53;5.13;;;;;;;13.67;83.55;96224.41;5027344;28;20030;-62
2022/05/13 02:43:31;;;;;;;5.22;4.50;;;;;;;13.60;84.45;96233.94;5020665;28;20084;-62
2022/05/13 02:45:56;;;;;;;8.13;5.00;;;;;;;13.58;84.04;96222.63;5028662;28;20032;-62
2022/05/13 02:48:22;;;;;;;9.27;5.03;;;;;;;13.54;86.57;96227.41;5030315;28;20025;-62
2022/05/13 02:50:47;;;;;;;5.93;4.80;;;;;;;13.53;85.25;96225.75;5020580;28;20034;-62
2022/05/13 02:53:14;;;;;;;10.38;5.03;;;;;;;13.50;84.83;96230.47;5024305;28;20024;-62
2022/05/13 02:55:39;;;;;;;6.18;4.47;;;;;;;13.49;85.43;96220.88;5020883;28;20017;-62
2022/05/13 02:58:04;;;;;;;7.25;4.90;;;;;;;13.50;84.14;96217.25;5025907;28;20025;-62
2022/05/13 03:00:31;;;;;;;6.53;4.47;;;;;;;13.54;83.68;96223.91;5025913;28;20523;-62
2022/05/13 03:02:57;;;;;;;5.50;4.93;;;;;;;13.46;84.08;96217.56;5021438;28;20026;-62
2022/05/13 03:05:23;;;;;;;7.22;4.90;;;;;;;13.40;83.85;96212.84;5022442;28;20087;-62
2022/05/13 03:07:50;;;;;;;5.68;5.05;;;;;;;13.49;84.38;96208.50;5029524;28;20026;-62
2022/05/13 03:10:15;;;;;;;7.70;4.82;;;;;;;13.50;84.19;96210.16;5027809;28;20025;-62
2022/05/13 03:12:40;;;;;;;10.82;5.28;;;;;;;13.47;84.04;96213.09;5020273;28;20021;-62
2022/05/13 03:15:07;;;;;;;6.43;4.90;;;;;;;13.42;84.52;96213.50;5029225;28;20021;-62
2022/05/13 03:17:34;;;;;;;4.82;4.35;;;;;;;13.31;85.03;96211.91;5021333;28;20018;-61
2022/05/13 03:20:00;;;;;;;6.45;4.88;;;;;;;13.28;84.71;96206.91;5020002;28;20026;-62
2022/05/13 03:22:26;;;;;;;6.10;5.43;;;;;;;13.20;85.56;96200.69;5023240;28;20132;-62
2022/05/13 03:24:51;;;;;;;5.20;4.70;;;;;;;13.22;84.98;96198.72;5020693;28;20508;-62
2022/05/13 03:27:17;;;;;;;8.20;5.00;;;;;;;13.20;84.77;96198.03;5016581;28;20030;-62
2022/05/13 03:29:42;;;;;;;7.90;4.70;;;;;;;13.22;84.83;96196.06;5019690;28;20022;-62
2022/05/13 03:32:08;;;;;;;10.02;4.97;;;;;;;13.26;84.62;96200.94;5024298;28;20080;-62
2022/05/13 03:34:37;;;;;;;6.93;5.03;;;;;;;13.21;85.67;96199.69;5025214;28;20570;-62
2022/05/13 03:37:04;;;;;;;7.78;5.32;;;;;;;13.24;85.09;96202.03;5022871;28;20057;-62
2022/05/13 03:39:29;;;;;;;6.07;4.38;;;;;;;13.18;85.28;96204.31;5029022;28;20033;-62
2022/05/13 03:41:55;;;;;;;5.53;5.07;;;;;;;13.17;85.51;96202.63;5017569;28;20088;-62
2022/05/13 03:44:20;;;;;;;4.78;4.47;;;;;;;13.16;86.10;96206.25;5025078;28;20179;-62
2022/05/13 03:46:46;;;;;;;6.20;5.30;;;;;;;13.13;85.39;96208.34;5018476;28;20068;-63
2022/05/13 03:49:11;;;;;;;7.13;5.25;;;;;;;13.17;85.09;96207.06;5025325;28;20017;-62
2022/05/13 03:51:37;;;;;;;8.75;5.20;;;;;;;13.11;86.95;96197.91;5020127;28;20037;-62
2022/05/13 03:54:03;;;;;;;9.75;5.05;;;;;;;13.07;86.27;96201.81;5021424;28;20041;-62
2022/05/13 03:56:28;;;;;;;5.35;4.85;;;;;;;13.07;86.28;96201.81;5024700;28;20554;-62
2022/05/13 03:58:54;;;;;;;7.50;4.93;;;;;;;13.07;86.17;96206.31;5025382;28;20029;-62
2022/05/13 04:01:19;;;;;;;7.43;5.30;;;;;;;13.09;85.79;96210.44;5018316;28;20059;-62
2022/05/13 04:03:47;;;;;;;7.05;5.15;;;;;;;13.06;86.60;96212.56;5022031;28;20021;-62
2022/05/13 04:08:57;;;;;;;5.90;5.10;;;;;;;12.97;86.81;96214.25;5022259;28;20068;-62
2022/05/13 04:11:24;;;;;;;6.97;5.35;;;;;;;12.98;86.43;96211.44;5023160;28;20108;-62
2022/05/13 04:16:33;;;;;;;5.80;5.25;;;;;;;12.90;86.64;96217.47;5013121;28;20061;-62
2022/05/13 04:18:58;;;;;;;5.82;5.32;;;;;;;12.85;87.05;96217.06;5015129;28;20557;-62
2022/05/13 04:21:28;;;;;;;14.15;5.40;;;;;;;12.81;87.64;96220.97;5021724;28;20025;-62
2022/05/13 04:23:56;;;;;;;9.55;5.38;;;;;;;12.73;88.17;96220.84;5027246;28;20030;-62
2022/05/13 04:26:22;;;;;;;8.60;5.65;;;;;;;12.70;89.46;96224.59;5020739;28;20072;-62
2022/05/13 04:28:50;;;;;;;5.38;4.90;;;;;;;12.72;87.74;96225.28;5018159;28;20115;-62
2022/05/13 04:31:20;;;;;;;9.10;6.03;;;;;;;12.77;88.70;96222.25;5020091;28;20030;-62
2022/05/13 04:33:47;;;;;;;8.10;5.45;;;;;;;12.81;87.86;96223.63;5028882;28;20021;-62
2022/05/13 04:36:12;;;;;;;9.35;5.30;;;;;;;12.84;87.09;96233.06;5016567;28;20450;-62
2022/05/13 04:38:38;;;;;;;8.60;5.03;;;;;;;12.89;87.21;96236.94;5019499;28;20082;-62
2022/05/13 04:43:49;;;;;;;7.32;5.13;;;;;;;12.96;87.08;96236.38;5025426;28;20116;-62
2022/05/13 04:46:15;;;;;;;8.38;5.32;;;;;;;12.91;87.17;96231.50;5026253;28;20408;-62
2022/05/13 04:48:41;;;;;;;6.10;5.18;;;;;;;12.92;87.42;96230.53;5023859;28;20108;-62
2022/05/13 04:51:08;;;;;;;7.63;6.28;;;;;;;12.98;88.31;96235.25;5023814;28;20101;-62
2022/05/13 04:53:36;;;;;;;10.85;6.15;;;;;;;13.04;88.83;96224.13;5020842;28;20409;-62
2022/05/13 04:56:03;;;;;;;10.52;5.93;;;;;;;13.06;88.03;96225.78;5026459;28;20030;-62
2022/05/13 04:58:29;;;;;;;9.07;4.97;;;;;;;13.04;87.32;96213.53;5022303;28;20026;-62
2022/05/13 05:00:56;;;;;;;8.30;5.05;;;;;;;13.11;86.36;96218.25;5026279;28;20398;-62
2022/05/13 05:03:23;;;;;;;11.63;5.32;;;;;;;13.08;87.33;96221.19;5024564;28;20514;-62
2022/05/13 05:05:49;;;;;;;5.55;5.03;;;;;;;12.96;87.88;96225.81;5019629;28;20083;-62
2022/05/13 05:08:15;;;;;;;6.13;5.57;;;;;;;12.96;87.61;96223.97;5021172;28;20026;-62
2022/05/13 05:10:43;;;;;;;6.43;5.82;;;;;;;12.94;87.41;96225.13;5021887;28;20038;-62
2022/05/13 05:13:09;;;;;;;7.15;5.97;;;;;;;13.02;87.25;96217.28;5018142;28;20770;-61
2022/05/13 05:15:36;;;;;;;7.55;5.13;;;;;;;13.02;87.57;96231.31;5024904;28;20044;-62
2022/05/13 05:18:02;;;;;;;8.18;5.53;;;;;;;13.06;87.92;96239.00;5019829;28;20116;-62
2022/05/13 05:20:27;;;;;;;6.03;5.50;;;;;;;13.10;87.92;96233.25;5019621;28;20041;-62
2022/05/13 05:22:53;;;;;;;6.68;5.40;;;;;;;13.17;88.48;96239.66;5026091;28;20052;-61
2022/05/13 05:25:20;;;;;;;8.35;5.50;;;;;;;13.25;87.94;96235.44;5019908;28;20097;-62
2022/05/13 05:27:46;;;;;;;6.43;5.70;;;;;;;13.37;87.13;96234.25;5015789;28;20030;-62
2022/05/13 05:30:13;;;;;;;7.60;6.25;;;;;;;13.52;86.58;96239.09;5014541;28;20502;-61
2022/05/13 05:32:40;;;;;;;6.00;5.25;;;;;;;13.67;85.32;96244.72;5017885;28;20041;-61
2022/05/13 05:35:09;;;;;;;12.05;5.30;;;;;;;13.77;84.58;96242.88;5015331;28;20029;-62
2022/05/13 05:37:35;;;;;;;8.38;4.45;;;;;;;13.84;83.78;96256.34;5023195;28;20057;-62
2022/05/13 05:40:00;;;;;;;7.13;5.22;;;;;;;13.91;83.18;96252.13;5013528;28;20481;-62
2022/05/13 05:42:26;;;;;;;7.13;5.20;;;;;;;13.98;83.19;96255.81;5013865;28;20025;-61
2022/05/13 05:44:51;;;;;;;9.43;5.38;;;;;;;14.03;83.54;96258.84;5026728;28;20923;-60
2022/05/13 05:47:21;;;;;;;8.90;5.35;;;;;;;14.11;82.98;96258.09;5024385;28;20037;-60
2022/05/13 05:49:47;;;;;;;6.80;5.03;;;;;;;14.11;83.19;96265.22;5029301;28;20021;-61
2022/05/13 05:52:12;;;;;;;5.80;5.05;;;;;;;14.21;82.77;96263.34;5016987;28;20029;-60
2022/05/13 05:57:22;;;;;;;8.63;5.28;;;;;;;14.41;82.04;96252.59;5017375;28;20049;-60
2022/05/13 05:59:48;;;;;;;5.50;4.95;;;;;;;14.60;81.64;96255.06;5023106;28;20117;-61
2022/05/13 06:02:14;;;;;;;12.30;4.70;;;;;;;14.84;80.26;96247.50;5028356;28;20059;-61
2022/05/13 06:04:40;;;;;;;8.77;5.00;;;;;;;15.04;78.70;96259.56;5020386;28;20121;-60
2022/05/13 06:07:09;;;;;;;5.65;4.95;;;;;;;15.18;78.10;96244.91;5022831;28;20225;-60
2022/05/13 06:09:36;;;;;;;7.47;5.30;;;;;;;15.42;76.80;96248.66;5026389;28;20361;-60
2022/05/13 06:12:02;;;;;;;5.50;4.95;;;;;;;15.66;75.46;96243.59;5017923;28;20124;-60
2022/05/13 06:14:28;;;;;;;8.50;4.90;;;;;;;15.92;74.77;96240.91;5017338;28;20033;-61
2022/05/13 06:16:54;;;;;;;9.15;5.18;;;;;;;16.21;73.23;96244.13;5019152;28;20774;-60
2022/05/13 06:19:19;;;;;;;8.25;4.53;;;;;;;16.40;71.70;96238.50;5019293;28;20107;-61
2022/05/13 06:21:45;;;;;;;5.30;4.43;;;;;;;16.70;70.98;96235.34;5023816;28;20036;-60
2022/05/13 06:24:11;;;;;;;5.68;4.25;;;;;;;17.09;68.50;96239.97;5025706;28;20048;-61
2022/05/13 06:26:37;;;;;;;8.55;4.65;;;;;;;17.28;67.26;96241.44;5018000;28;20468;-61
2022/05/13 06:29:04;;;;;;;8.52;4.47;;;;;;;17.21;67.20;96244.94;5029220;28;20060;-61
2022/05/13 06:31:29;;;;;;;10.80;4.43;;;;;;;17.59;66.38;96242.50;5021278;28;20108;-61
2022/05/13 06:33:55;;;;;;;5.15;4.57;;;;;;;17.86;65.08;96243.03;5017877;28;20585;-60
2022/05/13 06:36:21;;;;;;;9.23;4.82;;;;;;;18.00;62.97;96233.47;5021654;28;20071;-61
2022/05/13 06:38:47;;;;;;;6.03;4.50;;;;;;;18.27;62.80;96234.00;5025552;28;20477;-60
2022/05/13 06:41:12;;;;;;;6.60;4.10;;;;;;;18.51;61.60;96235.66;5024960;28;20026;-60
2022/05/13 06:43:38;;;;;;;10.13;3.72;;;;;;;18.81;60.76;96235.75;5020731;28;20040;-60
2022/05/13 06:46:03;;;;;;;8.98;4.10;;;;;;;18.69;59.91;96232.69;5020783;28;20026;-61
2022/05/13 06:48:29;;;;;;;5.70;3.80;;;;;;;19.09;59.05;96235.16;5029812;28;20024;-61
2022/05/13 06:50:54;;;;;;;6.40;4.22;;;;;;;19.41;59.01;96233.16;5019432;28;20017;-61
2022/05/13 06:53:21;;;;;;;6.95;4.10;;;;;;;19.61;56.74;96236.09;5017997;28;20028;-62
2022/05/13 06:55:46;;;;;;;4.70;3.33;;;;;;;19.87;56.33;96239.28;5025300;28;20024;-61
2022/05/13 06:58:13;;;;;;;6.63;4.00;;;;;;;20.29;52.96;96237.72;5021289;28;20026;-61
2022/05/13 07:00:39;;;;;;;3.92;3.60;;;;;;;20.35;54.30;96237.97;5021331;28;20111;-61
2022/05/13 07:03:06;;;;;;;6.28;3.70;;;;;;;20.73;54.63;96243.06;5016817;28;20452;-61
2022/05/13 07:05:32;;;;;;;3.83;3.13;;;;;;;20.30;54.03;96244.75;5018690;28;20036;-61
2022/05/13 07:07:58;;;;;;;6.50;3.65;;;;;;;20.47;54.33;96241.81;5020471;28;20714;-61
2022/05/13 07:10:24;;;;;;;6.18;3.45;;;;;;;21.07;52.81;96238.81;5026089;28;20108;-60
2022/05/13 07:12:49;;;;;;;5.57;3.22;;;;;;;21.36;49.90;96230.78;5021406;28;20026;-61
2022/05/13 07:15:17;;;;;;;4.82;3.42;;;;;;;21.41;51.29;96242.56;5026287;28;20111;-60
2022/05/13 07:17:43;;;;;;;6.75;3.60;;;;;;;21.87;51.05;96238.47;5016347;28;20038;-60
2022/05/13 07:20:11;;;;;;;7.32;3.60;;;;;;;22.42;48.07;96239.44;5019280;28;20060;-60
2022/05/13 07:22:36;;;;;;;4.50;3.28;;;;;;;22.70;47.41;96236.63;5022326;28;20040;-61
2022/05/13 07:25:02;;;;;;;3.92;3.35;;;;;;;22.58;47.23;96233.72;5019707;28;20026;-60
2022/05/13 07:27:28;;;;;;;3.70;3.13;;;;;;;22.59;47.71;96223.84;5024517;28;20040;-60
2022/05/13 07:29:53;;;;;;;7.25;3.25;;;;;;;22.89;45.62;96232.31;5020152;28;20033;-60
2022/05/13 07:32:18;;;;;;;7.60;3.13;;;;;;;22.89;44.67;96226.94;5026310;28;20033;-60
2022/05/13 07:34:44;;;;;;;7.38;3.42;;;;;;;23.54;43.12;96219.19;5024100;28;20034;-60
2022/05/13 07:37:10;;;;;;;5.70;3.40;;;;;;;23.04;44.38;96220.53;5019359;28;20045;-60
2022/05/13 07:42:20;;;;;;;7.90;4.10;;;;;;;23.12;44.94;96220.31;5016427;28;20586;-61
2022/05/13 07:44:46;;;;;;;8.20;3.60;;;;;;;22.83;47.43;96219.69;5024232;28;20049;-61
2022/05/13 07:47:11;;;;;;;6.70;3.35;;;;;;;23.07;46.17;96212.03;5020512;28;20441;-61
2022/05/13 07:49:39;;;;;;;4.32;3.13;;;;;;;23.14;44.79;96214.72;5019100;28;20040;-60
2022/05/13 07:52:05;;;;;;;8.10;3.20;;;;;;;23.27;44.79;96219.28;5015823;28;20022;-60
2022/05/13 07:54:31;;;;;;;4.97;3.33;;;;;;;23.82;41.75;96207.34;5013339;28;20026;-60
2022/05/13 07:56:56;;;;;;;5.72;3.45;;;;;;;22.95;44.88;96209.16;5014115;28;20404;-60
2022/05/13 07:59:22;;;;;;;5.82;3.00;;;;;;;23.44;43.12;96212.44;5018641;28;20168;-60
2022/05/13 08:01:47;;;;;;;8.20;3.10;;;;;;;22.86;44.18;96219.28;5019029;28;20413;-60
2022/05/13 08:04:13;;;;;;;3.45;3.05;;;;;;;23.04;44.13;96216.00;5020323;28;20025;-61
2022/05/13 08:06:42;;;;;;;4.38;3.20;;;;;;;23.92;42.46;96226.50;5020435;28;20061;-61
2022/05/13 08:09:08;;;;;;;5.32;3.35;;;;;;;23.95;41.94;96225.28;5019214;28;20026;-60
2022/05/13 08:11:33;;;;;;;7.10;2.72;;;;;;;23.30;44.73;96229.59;5013875;28;20025;-60
2022/05/13 08:14:01;;;;;;;12.40;3.05;;;;;;;23.34;43.84;96230.84;5012063;28;20656;-61
2022/05/13 08:16:29;;;;;;;5.70;3.10;;;;;;;23.04;44.83;96236.63;5009983;28;20030;-59
2022/05/13 08:18:56;;;;;;;5.93;3.40;;;;;;;23.21;45.23;96236.22;5012278;28;20026;-59
2022/05/13 08:21:23;;;;;;;6.75;3.38;;;;;;;22.80;44.80;96232.72;5022200;28;20037;-59
2022/05/13 08:23:49;;;;;;;6.72;3.55;;;;;;;23.15;45.06;96230.66;5014786;28;20053;-61
2022/05/13 08:26:16;;;;;;;4.32;2.83;;;;;;;23.75;42.38;96231.56;5018234;28;20514;-59
2022/05/13 08:28:42;;;;;;;5.82;2.92;;;;;;;23.64;43.50;96230.34;5010156;28;20033;-59
2022/05/13 08:31:08;;;;;;;9.52;3.55;;;;;;;24.30;40.58;96225.72;5011158;28;20024;-59
2022/05/13 08:33:34;;;;;;;5.13;2.88;;;;;;;24.06;41.05;96227.31;5024789;28;20389;-59
2022/05/13 08:36:02;;;;;;;11.13;3.63;;;;;;;24.01;40.70;96219.03;5020723;28;20021;-58
2022/05/13 08:38:30;;;;;;;11.40;3.22;;;;;;;23.54;42.24;96221.91;5023118;28;20100;-59
2022/05/13 08:41:24;;;;;;;9.27;3.67;;;;;;;24.14;40.66;96219.00;5019539;28;20031;-59
2022/05/13 08:44:02;;;;;;;8.15;3.25;;;;;;;24.63;39.47;96214.94;5021629;28;20036;-59
2022/05/13 08:46:45;;;;;;;9.52;3.65;;;;;;;24.35;41.21;96206.25;5011176;28;20121;-59
2022/05/13 08:49:23;;;;;;;13.70;2.92;;;;;;;24.86;38.93;96215.22;5015005;28;20033;-59
2022/05/13 08:51:59;;;;;;;5.53;2.88;;;;;;;24.24;39.54;96205.09;5024682;28;20516;-61
2022/05/13 08:54:30;;;;;;;4.60;2.72;;;;;;;24.67;40.09;96206.22;5021522;28;20719;-60
2022/05/13 08:57:00;;;;;;;6.22;3.50;;;;;;;25.68;37.59;96189.13;5014207;28;20030;-58
2022/05/13 08:59:49;;;;;;;5.85;3.25;;;;;;;25.59;37.18;96202.09;5021114;28;20042;-61
2022/05/13 09:02:30;;;;;;;4.72;2.90;;;;;;;25.37;37.23;96193.63;5015306;28;20109;-61
2022/05/13 09:05:30;;;;;;;4.38;2.83;;;;;;;24.85;39.46;96189.34;5020024;28;20041;-61
2022/05/13 09:07:56;;;;;;;5.28;3.22;;;;;;;25.34;40.66;96191.38;5020728;28;20171;-61
2022/05/13 09:10:24;;;;;;;8.10;3.00;;;;;;;26.05;36.33;96187.44;5024484;28;20125;-60
2022/05/13 09:13:12;;;;;;;7.60;3.10;;;;;;;26.08;37.56;96192.38;5020757;28;20552;-60
2022/05/13 09:15:48;;;;;;;9.50;6.63;;;;;;;26.06;36.73;96191.78;5013450;28;20045;-60
2022/05/13 09:18:33;;;;;;;6.50;5.75;;;;;;;26.35;35.43;96186.63;5021920;28;20056;-59
2022/05/13 09:21:20;;;;;;;5.80;3.33;;;;;;;25.97;36.43;96186.69;5014142;28;20096;-59
2022/05/13 09:23:46;;;;;;;9.25;3.17;;;;;;;25.89;36.95;96184.31;5011902;28;20026;-60
2022/05/13 09:26:13;;;;;;;3.42;2.72;;;;;;;25.76;37.78;96187.19;5016371;28;20033;-60
2022/05/13 09:29:05;;;;;;;7.65;3.55;;;;;;;25.42;37.61;96185.66;5018004;28;20029;-60
2022/05/13 09:31:33;;;;;;;7.00;3.42;;;;;;;25.59;37.79;96177.84;5017305;28;20033;-60
2022/05/13 09:33:59;;;;;;;7.35;3.58;;;;;;;25.41;38.90;96178.63;5022406;28;20028;-60
2022/05/13 09:36:26;;;;;;;6.28;3.10;;;;;;;24.77;40.86;96178.03;5014905;28;20021;-59
2022/05/13 09:38:52;;;;;;;5.40;2.92;;;;;;;25.50;38.50;96181.06;5028071;28;20049;-59
2022/05/13 09:41:32;;;;;;;4.60;3.08;;;;;;;25.58;38.87;96175.38;5017947;28;20088;-59
2022/05/13 09:44:10;;;;;;;9.65;3.30;;;;;;;25.77;38.77;96175.38;5011754;28;20048;-59
2022/05/13 09:46:37;;;;;;;6.45;3.00;;;;;;;25.81;37.10;96171.16;5019357;28;20041;-59
2022/05/13 09:49:19;;;;;;;12.63;4.03;;;;;;;25.89;38.27;96176.22;5014826;28;20026;-59
2022/05/13 09:51:59;;;;;;;6.57;4.30;;;;;;;25.39;39.32;96169.13;5016770;28;20022;-59
2022/05/13 09:54:31;;;;;;;4.05;2.92;;;;;;;25.67;37.32;96168.63;5024077;28;20742;-60
2022/05/13 09:57:07;;;;;;;8.05;4.50;;;;;;;25.30;39.48;96177.50;5014046;28;20053;-60
2022/05/13 09:59:39;;;;;;;5.75;4.20;;;;;;;25.70;38.01;96168.16;5020370;28;20037;-59
2022/05/13 10:02:34;;;;;;;6.85;4.00;;;;;;;25.25;40.34;96166.59;5019902;28;20969;-59
2022/05/13 10:05:27;;;;;;;7.07;4.20;;;;;;;25.24;40.67;96162.25;5016762;28;20476;-59
2022/05/13 10:07:55;;;;;;;9.13;4.10;;;;;;;25.81;39.23;96165.75;5012839;28;20582;-60
2022/05/13 10:16:02;;;;;;;10.15;3.42;;;;;;;25.48;38.02;96162.44;5020698;28;20031;-59
2022/05/13 10:18:33;;;;;;;5.88;3.38;;;;;;;25.65;38.75;96165.31;5014844;28;20029;-60
2022/05/13 10:21:01;;;;;;;3.50;3.15;;;;;;;25.64;37.15;96165.53;5021254;28;20032;-59
2022/05/13 10:23:51;;;;;;;6.10;3.70;;;;;;;25.83;40.07;96161.78;5024257;28;20033;-59
2022/05/13 10:26:20;;;;;;;4.50;2.95;;;;;;;25.98;39.34;96156.00;5016110;28;20033;-59
2022/05/13 10:28:59;;;;;;;2.83;2.50;;;;;;;26.17;36.07;96164.03;5017054;28;20029;-60
2022/05/13 10:31:29;;;;;;;6.70;2.70;;;;;;;25.95;35.62;96161.00;5024361;28;20567;-59
2022/05/13 10:33:54;;;;;;;5.40;2.75;;;;;;;25.60;37.88;96155.22;5023922;28;20030;-60
2022/05/13 10:36:22;;;;;;;5.77;2.50;;;;;;;25.62;36.60;96152.31;5022230;28;20863;-59
2022/05/13 10:38:59;;;;;;;3.38;2.33;;;;;;;25.41;35.48;96162.47;5020479;28;20265;-60
2022/05/13 10:41:40;;;;;;;3.08;2.70;;;;;;;25.45;37.41;96166.34;5028861;28;20025;-60
2022/05/13 10:44:41;;;;;;;6.13;3.08;;;;;;;25.98;36.17;96156.00;5024312;28;20104;-60
2022/05/13 10:47:40;;;;;;;3.60;2.47;;;;;;;26.13;36.91;96152.88;5024636;28;20124;-60
2022/05/13 10:50:15;;;;;;;4.85;2.85;;;;;;;25.68;36.37;96167.56;5011221;28;20041;-60
2022/05/13 10:52:49;;;;;;;6.40;2.78;;;;;;;25.55;35.44;96159.66;5019358;28;20034;-59
2022/05/13 10:55:31;;;;;;;7.07;2.42;;;;;;;25.34;34.93;96160.91;5023072;28;20040;-60
2022/05/13 10:58:16;;;;;;;5.13;2.63;;;;;;;25.72;36.65;96152.56;5022790;28;20026;-60
2022/05/13 11:00:55;;;;;;;10.35;2.55;;;;;;;25.12;36.83;96154.09;5021590;28;20045;-60
2022/05/13 11:03:41;;;;;;;7.15;2.90;;;;;;;25.65;36.69;96151.84;5019979;28;20041;-60
2022/05/13 11:06:09;;;;;;;8.25;2.55;;;;;;;25.71;36.27;96142.03;5022843;28;20079;-61
2022/05/13 11:08:53;;;;;;;6.55;3.08;;;;;;;25.21;36.45;96156.47;5024998;28;20443;-60
2022/05/13 11:11:27;;;;;;;6.45;2.65;;;;;;;25.11;37.57;96144.38;5019831;28;20030;-60
2022/05/13 11:14:26;;;;;;;3.17;2.55;;;;;;;25.95;35.65;96142.94;5020988;28;20388;-60
2022/05/13 11:17:18;;;;;;;4.20;2.63;;;;;;;25.55;35.55;96138.09;5021090;28;20045;-60
2022/05/13 11:20:11;;;;;;;5.15;2.53;;;;;;;25.54;36.58;96133.75;5028639;28;20029;-60
2022/05/13 11:22:45;;;;;;;8.13;3.03;;;;;;;25.68;37.26;96139.81;5027126;28;20044;-60
2022/05/13 11:28:25;;;;;;;8.43;2.70;;;;;;;24.67;38.10;96143.50;5028070;28;20047;-60
2022/05/13 11:30:53;;;;;;;6.28;2.60;;;;;;;25.45;36.87;96144.00;5023388;28;20496;-60
2022/05/13 11:33:27;;;;;;;7.32;2.25;;;;;;;25.17;36.00;96148.00;5019199;28;20040;-60
2022/05/13 11:36:04;;;;;;;4.27;2.63;;;;;;;25.60;36.49;96144.44;5018276;28;20440;-62
2022/05/13 11:38:51;;;;;;;4.65;2.95;;;;;;;25.68;37.15;96140.59;5030345;28;20072;-61
2022/05/13 11:41:21;;;;;;;3.00;2.10;;;;;;;25.70;37.03;96138.50;5020325;28;20014;-60
2022/05/13 11:44:06;;;;;;;3.90;2.30;;;;;;;26.34;36.20;96134.53;5018032;28;20105;-59
2022/05/13 11:46:57;;;;;;;3.05;2.30;;;;;;;26.45;34.96;96131.03;5017305;28;20755;-59
2022/05/13 11:49:45;;;;;;;3.45;2.22;;;;;;;26.25;35.61;96131.34;5027885;28;20033;-59
2022/05/13 11:52:13;;;;;;;3.13;2.25;;;;;;;26.74;34.26;96128.47;5023899;28;20397;-60
2022/05/13 11:54:41;;;;;;;6.68;2.40;;;;;;;26.69;34.46;96131.03;5023524;28;20607;-61
2022/05/13 11:57:24;;;;;;;6.28;2.42;;;;;;;26.35;35.27;96127.25;5021743;28;20500;-60
2022/05/13 11:59:54;;;;;;;6.30;2.72;;;;;;;26.29;35.13;96131.69;5025245;28;20133;-60
2022/05/13 12:02:30;;;;;;;2.40;2.00;;;;;;;26.23;35.03;96119.97;5020988;28;20025;-60
2022/05/13 12:05:08;;;;;;;5.10;2.47;;;;;;;26.26;34.76;96129.47;5021693;28;20766;-60
2022/05/13 12:07:50;;;;;;;2.63;2.10;;;;;;;26.14;35.04;96132.94;5023510;28;20120;-60
2022/05/13 12:10:16;;;;;;;6.03;2.33;;;;;;;25.95;35.07;96124.06;5025728;28;20025;-59